Barbarossa — IBJD — position and weather

sailwx.info

Track history (hours):
 
Tides and Currents Weather Stations Pressure Air Temp Water Temp Dewpoint Dewpoint Depression Visibility Wind Speed Wind Dir Waves Ship Positions

Barbarossa

Last reported at 2017-Nov-19 14:00 UTC. Time now 2017-Nov-19 14:16 UTC.
Position N 45°26' E 012°19'.

Length 294 m; draft 8.1 m.

Type: Passenger vessel. MMSI: 247282900.

Date/timePositionNaut miles runAvg speedWind from/ knotsBaromVisibWave heightAir tempDewpointWater temp
2017-Nov-19 14:00N 45°26' E 012°19'0 0.0
2017-Nov-19 13:30N 45°26' E 012°19'0 0.0
2017-Nov-19 13:00N 45°26' E 012°19'0 0.0
2017-Nov-19 12:29N 45°26' E 012°19'0 0.0
2017-Nov-19 11:59N 45°26' E 012°19'0 0.0
2017-Nov-19 11:30N 45°26' E 012°19'0 0.0
2017-Nov-19 10:59N 45°26' E 012°19'0 0.0
2017-Nov-19 10:29N 45°26' E 012°19'0 0.0
2017-Nov-19 09:59N 45°26' E 012°19'0 0.0
2017-Nov-19 09:29N 45°26' E 012°19'0 0.0
2017-Nov-19 08:59N 45°26' E 012°19'0 0.0
2017-Nov-19 08:29N 45°26' E 012°19'0 0.0
2017-Nov-19 07:59N 45°26' E 012°19'0 0.0
2017-Nov-19 07:30N 45°26' E 012°19'1 1.6
2017-Nov-19 07:00N 45°26' E 012°19'2 4.7
2017-Nov-19 06:30N 45°26' E 012°23'4 8.0
2017-Nov-19 06:00N 45°24' E 012°28'714.6
2017-Nov-19 05:30N 45°21' E 012°37'918.5
2017-Nov-19 05:00N 45°16' E 012°48'918.3
2017-Nov-19 04:30N 45°09' E 012°56'918.3
2017-Nov-19 04:00N 45°02' E 013°05'918.7
2017-Nov-19 03:30N 44°59' E 013°18'918.4
2017-Nov-19 03:00N 44°51' E 013°25'918.7
2017-Nov-19 02:30N 44°43' E 013°33'1019.1
2017-Nov-19 02:00N 44°35' E 013°40'1019.6
2017-Nov-19 01:30N 44°27' E 013°48'1019.5
2017-Nov-19 01:00N 44°19' E 013°55'1019.3
2017-Nov-19 00:30N 44°11' E 014°03'  
2017-Nov-16 16:34N 37°29' E 023°44'515.3
2017-Nov-16 16:14N 37°34' E 023°43'415.6
2017-Nov-16 16:00N 37°37' E 023°43'715.0
2017-Nov-16 15:30N 37°44' E 023°40'917.4
2017-Nov-16 15:00N 37°53' E 023°36'4 7.8
2017-Nov-16 14:30N 37°56' E 023°38'0 0.3
2017-Nov-16 13:58N 37°56' E 023°38'0 0.0
2017-Nov-16 13:28N 37°56' E 023°38'0 0.0
2017-Nov-16 12:58N 37°56' E 023°38'0 0.0
2017-Nov-16 12:28N 37°56' E 023°38'0 0.0
2017-Nov-16 11:58N 37°56' E 023°38'0 0.0
2017-Nov-16 11:28N 37°56' E 023°38'0 0.0
2017-Nov-16 10:58N 37°56' E 023°38'0 0.0
2017-Nov-16 10:28N 37°56' E 023°38'0 0.0
2017-Nov-16 09:58N 37°56' E 023°38'0 0.0
2017-Nov-16 09:28N 37°56' E 023°38'0 0.0
2017-Nov-16 08:58N 37°56' E 023°38'0 0.0
2017-Nov-16 08:28N 37°56' E 023°38'0 0.0
2017-Nov-16 07:58N 37°56' E 023°38'0 0.0
2017-Nov-16 07:28N 37°56' E 023°38'0 0.0
2017-Nov-16 06:58N 37°56' E 023°38'0 0.0
2017-Nov-16 06:28N 37°56' E 023°38'0 0.0
2017-Nov-16 05:58N 37°56' E 023°38'0 0.0
2017-Nov-16 05:28N 37°56' E 023°38'0 0.0
2017-Nov-16 05:00N 37°56' E 023°38'1 1.7
2017-Nov-16 04:30N 37°56' E 023°37'3 6.5
2017-Nov-16 04:00N 37°53' E 023°38'713.7
2017-Nov-16 03:31N 37°47' E 023°42'714.5
2017-Nov-16 03:01N 37°40' E 023°46'815.1
2017-Nov-16 02:31N 37°33' E 023°48'815.1
2017-Nov-16 01:58N 37°25' E 023°51'3114.2
2017-Nov-15 23:46N 36°55' E 024°01'  
2017-Nov-13 01:17N 43°60' E 014°08'520.3
2017-Nov-13 01:01N 44°04' E 014°04'1020.6
2017-Nov-13 00:31N 44°13' E 013°56'1020.6
2017-Nov-13 00:00N 44°22' E 013°48'1020.5
2017-Nov-12 23:31N 44°30' E 013°40'1020.3
2017-Nov-12 23:01N 44°39' E 013°32'1020.3
2017-Nov-12 22:30N 44°47' E 013°24'1020.3
2017-Nov-12 22:01N 44°56' E 013°16'1020.2
2017-Nov-12 21:31N 45°04' E 013°08'1019.6
2017-Nov-12 21:01N 45°13' E 013°03'1019.8
2017-Nov-12 20:30N 45°23' E 013°02'1019.8
2017-Nov-12 20:01N 45°30' E 013°12'1019.6
2017-Nov-12 19:31N 45°35' E 013°24'1019.4
2017-Nov-12 19:00N 45°39' E 013°37'612.5
2017-Nov-12 18:30N 45°39' E 013°45'0 0.8
2017-Nov-12 18:00N 45°39' E 013°46'0 0.0
2017-Nov-12 17:30N 45°39' E 013°46'0 0.0
2017-Nov-12 17:00N 45°39' E 013°46'0 0.0
2017-Nov-12 16:27N 45°39' E 013°46'0 0.0
2017-Nov-12 15:54N 45°39' E 013°46'0 0.0
2017-Nov-12 15:29N 45°39' E 013°46'0 0.0
2017-Nov-12 14:56N 45°39' E 013°46'0 0.0
2017-Nov-12 14:22N 45°39' E 013°46'0 0.0
2017-Nov-12 13:58N 45°39' E 013°46'0 0.0
2017-Nov-12 13:30N 45°39' E 013°46'0 0.0
2017-Nov-12 12:57N 45°39' E 013°46'0 0.0
2017-Nov-12 12:30N 45°39' E 013°46'0 0.0
2017-Nov-12 11:58N 45°39' E 013°46'0 0.0
2017-Nov-12 11:29N 45°39' E 013°46'0 0.0
2017-Nov-12 10:59N 45°39' E 013°46'0 0.0
2017-Nov-12 10:30N 45°39' E 013°46'0 0.0
2017-Nov-12 09:59N 45°39' E 013°46'0 0.0
2017-Nov-12 09:29N 45°39' E 013°46'0 0.0
2017-Nov-12 08:59N 45°39' E 013°46'0 0.0
2017-Nov-12 08:26N 45°39' E 013°46'0 0.0
2017-Nov-12 07:59N 45°39' E 013°46'0 0.0
2017-Nov-12 07:30N 45°39' E 013°46'0 0.0
2017-Nov-12 06:58N 45°39' E 013°46'0 0.0
2017-Nov-12 06:30N 45°39' E 013°46'1 2.8
2017-Nov-12 06:00N 45°39' E 013°44'510.7
2017-Nov-12 05:30N 45°38' E 013°37'918.7
2017-Nov-12 05:00N 45°32' E 013°26'1019.0
2017-Nov-12 04:30N 45°26' E 013°15'918.4
2017-Nov-12 04:00N 45°17' E 013°13'1019.3
2017-Nov-12 03:30N 45°08' E 013°16'1019.4
2017-Nov-12 03:00N 44°58' E 013°21'1019.4
2017-Nov-12 02:30N 44°50' E 013°27'1019.6
2017-Nov-12 02:00N 44°42' E 013°35'1019.7
2017-Nov-12 01:30N 44°34' E 013°43'1019.8
2017-Nov-12 01:00N 44°25' E 013°50'1019.8
2017-Nov-12 00:30N 44°17' E 013°58'1019.9
2017-Nov-12 00:00N 44°09' E 014°06'1019.7
2017-Nov-11 23:30N 44°01' E 014°14'  
2017-Nov-09 17:22N 37°24' E 023°44'1015.7
2017-Nov-09 16:44N 37°34' E 023°43'415.6
2017-Nov-09 16:27N 37°38' E 023°43'715.5
2017-Nov-09 16:00N 37°45' E 023°40'815.3
2017-Nov-09 15:30N 37°52' E 023°37'5 9.6
2017-Nov-09 15:00N 37°57' E 023°38'0 0.4
2017-Nov-09 14:28N 37°56' E 023°38'  
Track history (hours):
 
Tides and Currents Weather Stations Pressure Air Temp Water Temp Dewpoint Dewpoint Depression Visibility Wind Speed Wind Dir Waves Ship Positions

Barbarossa

Last reported at 2017-Nov-19 14:00 UTC. Time now 2017-Nov-19 14:16 UTC.
Position N 45°26' E 012°19'.

Length 294 m; draft 8.1 m.

Type: Passenger vessel. MMSI: 247282900.

Date/timePositionNaut miles runAvg speedWind from/ knotsBaromVisibWave heightAir tempDewpointWater temp
2017-Nov-19 14:00N 45°26' E 012°19'0 0.0
2017-Nov-19 13:30N 45°26' E 012°19'0 0.0
2017-Nov-19 13:00N 45°26' E 012°19'0 0.0
2017-Nov-19 12:29N 45°26' E 012°19'0 0.0
2017-Nov-19 11:59N 45°26' E 012°19'0 0.0
2017-Nov-19 11:30N 45°26' E 012°19'0 0.0
2017-Nov-19 10:59N 45°26' E 012°19'0 0.0
2017-Nov-19 10:29N 45°26' E 012°19'0 0.0
2017-Nov-19 09:59N 45°26' E 012°19'0 0.0
2017-Nov-19 09:29N 45°26' E 012°19'0 0.0
2017-Nov-19 08:59N 45°26' E 012°19'0 0.0
2017-Nov-19 08:29N 45°26' E 012°19'0 0.0
2017-Nov-19 07:59N 45°26' E 012°19'0 0.0
2017-Nov-19 07:30N 45°26' E 012°19'1 1.6
2017-Nov-19 07:00N 45°26' E 012°19'2 4.7
2017-Nov-19 06:30N 45°26' E 012°23'4 8.0
2017-Nov-19 06:00N 45°24' E 012°28'714.6
2017-Nov-19 05:30N 45°21' E 012°37'918.5
2017-Nov-19 05:00N 45°16' E 012°48'918.3
2017-Nov-19 04:30N 45°09' E 012°56'918.3
2017-Nov-19 04:00N 45°02' E 013°05'918.7
2017-Nov-19 03:30N 44°59' E 013°18'918.4
2017-Nov-19 03:00N 44°51' E 013°25'918.7
2017-Nov-19 02:30N 44°43' E 013°33'1019.1
2017-Nov-19 02:00N 44°35' E 013°40'1019.6
2017-Nov-19 01:30N 44°27' E 013°48'1019.5
2017-Nov-19 01:00N 44°19' E 013°55'1019.3
2017-Nov-19 00:30N 44°11' E 014°03'  
2017-Nov-16 16:34N 37°29' E 023°44'515.3
2017-Nov-16 16:14N 37°34' E 023°43'415.6
2017-Nov-16 16:00N 37°37' E 023°43'715.0
2017-Nov-16 15:30N 37°44' E 023°40'917.4
2017-Nov-16 15:00N 37°53' E 023°36'4 7.8
2017-Nov-16 14:30N 37°56' E 023°38'0 0.3
2017-Nov-16 13:58N 37°56' E 023°38'0 0.0
2017-Nov-16 13:28N 37°56' E 023°38'0 0.0
2017-Nov-16 12:58N 37°56' E 023°38'0 0.0
2017-Nov-16 12:28N 37°56' E 023°38'0 0.0
2017-Nov-16 11:58N 37°56' E 023°38'0 0.0
2017-Nov-16 11:28N 37°56' E 023°38'0 0.0
2017-Nov-16 10:58N 37°56' E 023°38'0 0.0
2017-Nov-16 10:28N 37°56' E 023°38'0 0.0
2017-Nov-16 09:58N 37°56' E 023°38'0 0.0
2017-Nov-16 09:28N 37°56' E 023°38'0 0.0
2017-Nov-16 08:58N 37°56' E 023°38'0 0.0
2017-Nov-16 08:28N 37°56' E 023°38'0 0.0
2017-Nov-16 07:58N 37°56' E 023°38'0 0.0
2017-Nov-16 07:28N 37°56' E 023°38'0 0.0
2017-Nov-16 06:58N 37°56' E 023°38'0 0.0
2017-Nov-16 06:28N 37°56' E 023°38'0 0.0
2017-Nov-16 05:58N 37°56' E 023°38'0 0.0
2017-Nov-16 05:28N 37°56' E 023°38'0 0.0
2017-Nov-16 05:00N 37°56' E 023°38'1 1.7
2017-Nov-16 04:30N 37°56' E 023°37'3 6.5
2017-Nov-16 04:00N 37°53' E 023°38'713.7
2017-Nov-16 03:31N 37°47' E 023°42'714.5
2017-Nov-16 03:01N 37°40' E 023°46'815.1
2017-Nov-16 02:31N 37°33' E 023°48'815.1
2017-Nov-16 01:58N 37°25' E 023°51'3114.2
2017-Nov-15 23:46N 36°55' E 024°01'  
2017-Nov-13 01:17N 43°60' E 014°08'520.3
2017-Nov-13 01:01N 44°04' E 014°04'1020.6
2017-Nov-13 00:31N 44°13' E 013°56'1020.6
2017-Nov-13 00:00N 44°22' E 013°48'1020.5
2017-Nov-12 23:31N 44°30' E 013°40'1020.3
2017-Nov-12 23:01N 44°39' E 013°32'1020.3
2017-Nov-12 22:30N 44°47' E 013°24'1020.3
2017-Nov-12 22:01N 44°56' E 013°16'1020.2
2017-Nov-12 21:31N 45°04' E 013°08'1019.6
2017-Nov-12 21:01N 45°13' E 013°03'1019.8
2017-Nov-12 20:30N 45°23' E 013°02'1019.8
2017-Nov-12 20:01N 45°30' E 013°12'1019.6
2017-Nov-12 19:31N 45°35' E 013°24'1019.4
2017-Nov-12 19:00N 45°39' E 013°37'612.5
2017-Nov-12 18:30N 45°39' E 013°45'0 0.8
2017-Nov-12 18:00N 45°39' E 013°46'0 0.0
2017-Nov-12 17:30N 45°39' E 013°46'0 0.0
2017-Nov-12 17:00N 45°39' E 013°46'0 0.0
2017-Nov-12 16:27N 45°39' E 013°46'0 0.0
2017-Nov-12 15:54N 45°39' E 013°46'0 0.0
2017-Nov-12 15:29N 45°39' E 013°46'0 0.0
2017-Nov-12 14:56N 45°39' E 013°46'0 0.0
2017-Nov-12 14:22N 45°39' E 013°46'0 0.0
2017-Nov-12 13:58N 45°39' E 013°46'0 0.0
2017-Nov-12 13:30N 45°39' E 013°46'0 0.0
2017-Nov-12 12:57N 45°39' E 013°46'0 0.0
2017-Nov-12 12:30N 45°39' E 013°46'0 0.0
2017-Nov-12 11:58N 45°39' E 013°46'0 0.0
2017-Nov-12 11:29N 45°39' E 013°46'0 0.0
2017-Nov-12 10:59N 45°39' E 013°46'0 0.0
2017-Nov-12 10:30N 45°39' E 013°46'0 0.0
2017-Nov-12 09:59N 45°39' E 013°46'0 0.0
2017-Nov-12 09:29N 45°39' E 013°46'0 0.0
2017-Nov-12 08:59N 45°39' E 013°46'0 0.0
2017-Nov-12 08:26N 45°39' E 013°46'0 0.0
2017-Nov-12 07:59N 45°39' E 013°46'0 0.0
2017-Nov-12 07:30N 45°39' E 013°46'0 0.0
2017-Nov-12 06:58N 45°39' E 013°46'0 0.0
2017-Nov-12 06:30N 45°39' E 013°46'1 2.8
2017-Nov-12 06:00N 45°39' E 013°44'510.7
2017-Nov-12 05:30N 45°38' E 013°37'918.7
2017-Nov-12 05:00N 45°32' E 013°26'1019.0
2017-Nov-12 04:30N 45°26' E 013°15'918.4
2017-Nov-12 04:00N 45°17' E 013°13'1019.3
2017-Nov-12 03:30N 45°08' E 013°16'1019.4
2017-Nov-12 03:00N 44°58' E 013°21'1019.4
2017-Nov-12 02:30N 44°50' E 013°27'1019.6
2017-Nov-12 02:00N 44°42' E 013°35'1019.7
2017-Nov-12 01:30N 44°34' E 013°43'1019.8
2017-Nov-12 01:00N 44°25' E 013°50'1019.8
2017-Nov-12 00:30N 44°17' E 013°58'1019.9
2017-Nov-12 00:00N 44°09' E 014°06'1019.7
2017-Nov-11 23:30N 44°01' E 014°14'  
2017-Nov-09 17:22N 37°24' E 023°44'1015.7
2017-Nov-09 16:44N 37°34' E 023°43'415.6
2017-Nov-09 16:27N 37°38' E 023°43'715.5
2017-Nov-09 16:00N 37°45' E 023°40'815.3
2017-Nov-09 15:30N 37°52' E 023°37'5 9.6
2017-Nov-09 15:00N 37°57' E 023°38'0 0.4
2017-Nov-09 14:28N 37°56' E 023°38'  

Dump ship's entire track history